Time;durP1;ratioP1;P1;durP2;ratioP2;P2;SDS_P1;SDS_P2;PMS_P1;PMS_P2;Temp;Humidity;BMP_temperature;BMP_pressure;BME280_temperature;BME280_humidity;BME280_pressure;Samples;Min_cycle;Max_cycle;Signal;HPM_P1;HPM_P2
2022/01/24 00:00:03;;;;;;;32.28;22.25;;;;;;;;;;5005687;28;20046;-70
2022/01/24 00:02:31;;;;;;;31.58;22.33;;;;;;;;;;5008546;28;20042;-70
2022/01/24 00:04:57;;;;;;;29.48;21.20;;;;;;;;;;5005442;28;20050;-70
2022/01/24 00:07:24;;;;;;;28.85;20.25;;;;;;;;;;5007791;28;20504;-70
2022/01/24 00:09:54;;;;;;;31.85;21.65;;;;;;;;;;5011692;28;20057;-70
2022/01/24 00:12:51;;;;;;;26.25;18.50;;;;;;;;;;5013039;28;20096;-70
2022/01/24 00:17:46;;;;;;;27.95;19.02;;;;;;;;;;5013467;28;20100;-70
2022/01/24 00:28:10;;;;;;;27.35;19.35;;;;;;;;;;5011992;28;20046;-70
2022/01/24 00:30:37;;;;;;;29.90;20.75;;;;;;;;;;5005442;28;20104;-70
2022/01/24 00:33:04;;;;;;;29.77;21.33;;;;;;;;;;5013909;28;20053;-70
2022/01/24 00:35:30;;;;;;;31.17;21.00;;;;;;;;;;5004274;28;20486;-70
2022/01/24 00:38:00;;;;;;;29.67;21.08;;;;;;;;;;5013372;28;20100;-70
2022/01/24 00:40:28;;;;;;;34.63;22.55;;;;;;;;;;5003701;28;20043;-70
2022/01/24 00:55:40;;;;;;;28.23;20.23;;;;;;;;;;5013069;28;20046;-70
2022/01/24 00:58:06;;;;;;;30.45;22.23;;;;;;;;;;5012999;28;20640;-70
2022/01/24 01:00:33;;;;;;;30.67;21.85;;;;;;;;;;5012605;28;20405;-70
2022/01/24 01:02:59;;;;;;;38.38;21.88;;;;;;;;;;5013032;28;20042;-70
2022/01/24 01:18:04;;;;;;;30.42;20.77;;;;;;;;;;5012853;28;20111;-70
2022/01/24 01:19:03;;;;;;;31.58;21.05;;;;;;;;;;5012442;28;20089;-70
2022/01/24 01:21:30;;;;;;;28.27;19.42;;;;;;;;;;5012358;28;20046;-70
2022/01/24 01:23:58;;;;;;;28.45;19.55;;;;;;;;;;5012626;28;20103;-70
2022/01/24 01:26:43;;;;;;;29.38;20.73;;;;;;;;;;5011043;28;20607;-69
2022/01/24 01:29:27;;;;;;;31.20;20.30;;;;;;;;;;5012612;28;20057;-70
2022/01/24 01:32:07;;;;;;;30.67;20.65;;;;;;;;;;5012424;28;20109;-70
2022/01/24 01:37:25;;;;;;;31.70;21.35;;;;;;;;;;5012058;28;20505;-70
2022/01/24 01:56:06;;;;;;;32.92;21.38;;;;;;;;;;5011963;28;20111;-70
2022/01/24 01:58:33;;;;;;;33.17;21.83;;;;;;;;;;5011862;28;20049;-70
2022/01/24 02:01:00;;;;;;;30.90;21.20;;;;;;;;;;5011946;28;20097;-70
2022/01/24 02:03:27;;;;;;;32.28;21.00;;;;;;;;;;5012129;28;20120;-70
2022/01/24 02:05:54;;;;;;;32.75;21.50;;;;;;;;;;5011919;28;20074;-69
2022/01/24 02:08:26;;;;;;;32.58;21.30;;;;;;;;;;5011958;28;20042;-70
2022/01/24 02:10:53;;;;;;;31.92;20.55;;;;;;;;;;5010779;28;20050;-70
2022/01/24 02:13:23;;;;;;;33.72;21.95;;;;;;;;;;5011848;28;20058;-69
2022/01/24 02:18:38;;;;;;;31.00;19.63;;;;;;;;;;5011974;28;20100;-69
2022/01/24 02:21:27;;;;;;;30.23;20.27;;;;;;;;;;5011814;28;20053;-70
2022/01/24 02:23:51;;;;;;;27.88;17.73;;;;;;;;;;5011470;28;20046;-70
2022/01/24 02:26:21;;;;;;;26.67;18.35;;;;;;;;;;5011894;28;20049;-70
2022/01/24 02:28:57;;;;;;;26.20;17.67;;;;;;;;;;5012029;28;20170;-69
2022/01/24 02:31:44;;;;;;;25.75;17.13;;;;;;;;;;5011938;28;20057;-69
2022/01/24 02:34:19;;;;;;;23.50;16.73;;;;;;;;;;5011834;28;20053;-69
2022/01/24 02:36:46;;;;;;;23.83;15.98;;;;;;;;;;5011512;28;20486;-69
2022/01/24 02:50:00;;;;;;;22.92;15.85;;;;;;;;;;5012194;28;20548;-69
2022/01/24 02:52:27;;;;;;;26.77;17.60;;;;;;;;;;5015347;28;20108;-69
2022/01/24 02:54:54;;;;;;;24.92;17.55;;;;;;;;;;5015123;28;20108;-69
2022/01/24 02:57:20;;;;;;;29.55;18.65;;;;;;;;;;5015211;28;20104;-69
2022/01/24 02:59:47;;;;;;;24.35;17.13;;;;;;;;;;5014967;28;20049;-69
2022/01/24 03:02:13;;;;;;;29.45;19.15;;;;;;;;;;5015067;28;20049;-69
2022/01/24 03:04:40;;;;;;;29.80;19.52;;;;;;;;;;5015113;28;20057;-70
2022/01/24 03:07:06;;;;;;;25.08;17.42;;;;;;;;;;5014783;28;20493;-69
2022/01/24 03:09:34;;;;;;;29.00;19.00;;;;;;;;;;5014920;28;20057;-69
2022/01/24 03:12:07;;;;;;;25.63;16.48;;;;;;;;;;5014999;28;20058;-69
2022/01/24 03:14:35;;;;;;;25.35;16.33;;;;;;;;;;5015067;28;20112;-69
2022/01/24 03:17:03;;;;;;;23.67;16.58;;;;;;;;;;5013383;28;20081;-69
2022/01/24 03:19:30;;;;;;;28.50;17.67;;;;;;;;;;5014918;28;20050;-69
2022/01/24 03:21:57;;;;;;;28.73;18.00;;;;;;;;;;5014416;28;20050;-69
2022/01/24 03:24:23;;;;;;;26.23;17.98;;;;;;;;;;5014456;28;20084;-69
2022/01/24 03:26:50;;;;;;;29.63;19.75;;;;;;;;;;5014678;28;20046;-69
2022/01/24 03:29:16;;;;;;;22.05;15.68;;;;;;;;;;5014522;28;20038;-69
2022/01/24 03:31:45;;;;;;;26.20;17.40;;;;;;;;;;5014480;28;20107;-69
2022/01/24 03:34:12;;;;;;;24.13;16.13;;;;;;;;;;5014297;28;20052;-69
2022/01/24 03:36:38;;;;;;;27.55;18.20;;;;;;;;;;5013074;28;20076;-69
2022/01/24 03:39:04;;;;;;;27.55;18.52;;;;;;;;;;5014154;28;20050;-69
2022/01/24 03:41:31;;;;;;;28.13;19.42;;;;;;;;;;5014094;28;20077;-69
2022/01/24 03:44:03;;;;;;;28.08;18.63;;;;;;;;;;5014440;28;20046;-69
2022/01/24 03:46:46;;;;;;;28.58;18.92;;;;;;;;;;5014393;28;20046;-69
2022/01/24 03:49:45;;;;;;;26.75;18.95;;;;;;;;;;5014073;28;20045;-69
2022/01/24 03:51:59;;;;;;;27.35;18.63;;;;;;;;;;5014015;28;20054;-69
2022/01/24 03:54:26;;;;;;;30.65;20.73;;;;;;;;;;5014099;28;20050;-69
2022/01/24 03:56:52;;;;;;;32.10;21.23;;;;;;;;;;5013905;28;20049;-69
2022/01/24 03:59:19;;;;;;;32.97;20.75;;;;;;;;;;5012567;28;20502;-69
2022/01/24 04:01:45;;;;;;;32.28;21.33;;;;;;;;;;5013601;28;20111;-70
2022/01/24 04:04:12;;;;;;;32.25;21.05;;;;;;;;;;5014025;28;20049;-69
2022/01/24 04:06:39;;;;;;;30.45;21.50;;;;;;;;;;5013900;28;20486;-69
2022/01/24 04:09:05;;;;;;;25.65;17.98;;;;;;;;;;5013607;28;20054;-69
2022/01/24 04:11:36;;;;;;;28.33;18.60;;;;;;;;;;5013410;28;20053;-69
2022/01/24 04:14:23;;;;;;;26.88;17.55;;;;;;;;;;5013939;28;20115;-69
2022/01/24 04:17:04;;;;;;;26.73;18.60;;;;;;;;;;5013746;28;20057;-69
2022/01/24 04:22:00;;;;;;;30.55;19.90;;;;;;;;;;5013332;28;20050;-69
2022/01/24 04:24:27;;;;;;;28.77;18.40;;;;;;;;;;5013405;28;20535;-69
2022/01/24 04:26:54;;;;;;;25.13;17.13;;;;;;;;;;5013325;28;20054;-69
2022/01/24 04:29:20;;;;;;;29.45;18.23;;;;;;;;;;5013505;28;20103;-69
2022/01/24 04:31:47;;;;;;;26.65;18.73;;;;;;;;;;5013223;28;20555;-69
2022/01/24 04:34:13;;;;;;;27.23;17.58;;;;;;;;;;5013229;28;20124;-69
2022/01/24 04:36:40;;;;;;;24.48;16.27;;;;;;;;;;5013414;28;20453;-69
2022/01/24 04:39:06;;;;;;;26.25;18.15;;;;;;;;;;5012968;28;20058;-69
2022/01/24 04:41:37;;;;;;;24.90;16.67;;;;;;;;;;5012974;28;20046;-69
2022/01/24 04:56:43;;;;;;;23.75;15.45;;;;;;;;;;5012995;28;20096;-70
2022/01/24 04:59:09;;;;;;;24.30;15.70;;;;;;;;;;5012721;28;20108;-70
2022/01/24 05:01:36;;;;;;;25.48;15.77;;;;;;;;;;5011431;28;20046;-69
2022/01/24 05:04:02;;;;;;;22.65;15.63;;;;;;;;;;5012678;28;20552;-70
2022/01/24 05:06:29;;;;;;;26.52;17.92;;;;;;;;;;5013182;28;20053;-69
2022/01/24 05:08:56;;;;;;;26.02;17.80;;;;;;;;;;5012712;28;20046;-69
2022/01/24 05:11:37;;;;;;;26.45;17.23;;;;;;;;;;5012775;28;20465;-69
2022/01/24 05:24:47;;;;;;;22.20;15.10;;;;;;;;;;5012282;28;20081;-70
2022/01/24 05:27:14;;;;;;;21.00;14.88;;;;;;;;;;5012431;28;20490;-70
2022/01/24 05:29:40;;;;;;;22.13;15.60;;;;;;;;;;5012549;28;20092;-70
2022/01/24 05:32:08;;;;;;;20.80;15.02;;;;;;;;;;5012085;28;20104;-70
2022/01/24 05:34:35;;;;;;;19.58;14.40;;;;;;;;;;5012384;28;20045;-69
2022/01/24 05:37:01;;;;;;;21.73;15.32;;;;;;;;;;5012168;28;20494;-69
2022/01/24 05:39:28;;;;;;;21.77;15.07;;;;;;;;;;5012116;28;20076;-69
2022/01/24 05:41:54;;;;;;;23.42;16.17;;;;;;;;;;5011978;28;20482;-70
2022/01/24 05:44:21;;;;;;;22.17;15.10;;;;;;;;;;5012214;28;20100;-69
2022/01/24 05:46:47;;;;;;;19.38;14.05;;;;;;;;;;5012041;28;20050;-69
2022/01/24 05:49:14;;;;;;;22.27;16.42;;;;;;;;;;5012244;28;20049;-69
2022/01/24 05:51:40;;;;;;;24.10;16.08;;;;;;;;;;5011998;28;20556;-69
2022/01/24 05:54:07;;;;;;;19.05;14.93;;;;;;;;;;5012034;28;20100;-69
2022/01/24 05:56:34;;;;;;;29.13;17.75;;;;;;;;;;5010572;28;20104;-70
2022/01/24 05:59:00;;;;;;;25.65;16.88;;;;;;;;;;5012120;28;20053;-70
2022/01/24 06:01:26;;;;;;;26.55;17.98;;;;;;;;;;5011724;28;20038;-70
2022/01/24 06:03:53;;;;;;;27.00;17.77;;;;;;;;;;5011949;28;20420;-69
2022/01/24 06:06:25;;;;;;;27.63;17.63;;;;;;;;;;5012064;28;20072;-70
2022/01/24 06:08:51;;;;;;;25.42;17.20;;;;;;;;;;5011857;28;20112;-69
2022/01/24 06:11:20;;;;;;;25.83;16.80;;;;;;;;;;5011794;28;20058;-69
2022/01/24 06:13:50;;;;;;;24.08;15.63;;;;;;;;;;5012015;28;20123;-69
2022/01/24 06:16:17;;;;;;;23.25;16.58;;;;;;;;;;5011977;28;20050;-69
2022/01/24 06:18:43;;;;;;;29.40;18.70;;;;;;;;;;5011728;28;20056;-69
2022/01/24 06:21:10;;;;;;;28.23;18.02;;;;;;;;;;5010444;28;20049;-69
2022/01/24 06:23:36;;;;;;;26.65;17.80;;;;;;;;;;5011795;28;20486;-70
2022/01/24 06:26:03;;;;;;;27.00;17.88;;;;;;;;;;5014024;28;20432;-70
2022/01/24 06:28:29;;;;;;;24.65;16.75;;;;;;;;;;5015586;28;20045;-70
2022/01/24 06:30:56;;;;;;;24.58;16.77;;;;;;;;;;5015174;28;20100;-71
2022/01/24 06:33:27;;;;;;;25.10;16.08;;;;;;;;;;5013946;28;20049;-71
2022/01/24 06:35:54;;;;;;;26.65;17.35;;;;;;;;;;5015339;28;20080;-71
2022/01/24 06:38:20;;;;;;;27.40;16.00;;;;;;;;;;5015611;28;20053;-71
2022/01/24 06:40:47;;;;;;;25.33;16.95;;;;;;;;;;5013946;28;20042;-71
2022/01/24 06:43:13;;;;;;;27.23;17.98;;;;;;;;;;5015594;28;20096;-71
2022/01/24 06:45:40;;;;;;;29.73;18.85;;;;;;;;;;5015372;28;20567;-71
2022/01/24 06:48:06;;;;;;;28.63;19.50;;;;;;;;;;5015142;28;20502;-71
2022/01/24 06:50:33;;;;;;;26.42;17.73;;;;;;;;;;5015139;28;20537;-70
2022/01/24 06:52:59;;;;;;;24.88;16.67;;;;;;;;;;5014224;28;20054;-71
2022/01/24 06:55:26;;;;;;;27.35;18.15;;;;;;;;;;5014655;28;20046;-70
2022/01/24 06:57:52;;;;;;;26.08;18.15;;;;;;;;;;5012979;28;20104;-71
2022/01/24 07:00:25;;;;;;;26.67;17.30;;;;;;;;;;5014466;28;20112;-71
2022/01/24 07:02:53;;;;;;;25.67;17.90;;;;;;;;;;5015222;28;20046;-70
2022/01/24 07:05:20;;;;;;;25.65;16.90;;;;;;;;;;5014867;28;20046;-69
2022/01/24 07:07:46;;;;;;;29.77;18.30;;;;;;;;;;5014573;28;20046;-70
2022/01/24 07:10:13;;;;;;;30.70;19.40;;;;;;;;;;5014478;28;20046;-69
2022/01/24 07:12:54;;;;;;;28.50;17.55;;;;;;;;;;5014374;28;20038;-69
2022/01/24 07:15:28;;;;;;;30.10;18.85;;;;;;;;;;5014693;28;20375;-69
2022/01/24 07:20:35;;;;;;;29.27;19.15;;;;;;;;;;5013065;28;20130;-74
2022/01/24 07:23:02;;;;;;;30.23;18.13;;;;;;;;;;5013126;28;20564;-71
2022/01/24 07:25:28;;;;;;;32.17;19.10;;;;;;;;;;5013622;28;20092;-71
2022/01/24 07:27:55;;;;;;;33.92;20.42;;;;;;;;;;5014454;28;20046;-71
2022/01/24 07:30:21;;;;;;;35.58;21.48;;;;;;;;;;5014233;28;20490;-73
2022/01/24 07:32:48;;;;;;;31.25;19.90;;;;;;;;;;5014624;28;20037;-72
2022/01/24 07:35:14;;;;;;;32.85;19.33;;;;;;;;;;5013847;28;20486;-71
2022/01/24 07:37:41;;;;;;;30.90;19.65;;;;;;;;;;5013358;28;20073;-69
2022/01/24 07:40:09;;;;;;;31.35;18.63;;;;;;;;;;5011468;28;20051;-70
2022/01/24 07:45:22;;;;;;;32.08;19.92;;;;;;;;;;5013879;28;20072;-71
2022/01/24 07:47:49;;;;;;;28.75;17.83;;;;;;;;;;5013283;28;20041;-72
2022/01/24 07:50:17;;;;;;;29.63;18.52;;;;;;;;;;5012305;28;20072;-71
2022/01/24 07:52:44;;;;;;;29.67;18.10;;;;;;;;;;5013467;28;20053;-71
2022/01/24 07:55:10;;;;;;;28.98;16.67;;;;;;;;;;5013744;28;20464;-71
2022/01/24 07:57:37;;;;;;;30.70;18.15;;;;;;;;;;5012929;28;20084;-71
2022/01/24 08:00:04;;;;;;;30.40;19.10;;;;;;;;;;5012034;28;20103;-71
2022/01/24 08:02:31;;;;;;;30.85;18.15;;;;;;;;;;5013599;28;20157;-71
2022/01/24 08:04:57;;;;;;;31.10;19.63;;;;;;;;;;5013333;28;20085;-71
2022/01/24 08:07:25;;;;;;;31.08;19.13;;;;;;;;;;5013276;28;20041;-71
2022/01/24 08:09:51;;;;;;;30.33;17.27;;;;;;;;;;5013380;28;20494;-72
2022/01/24 08:12:18;;;;;;;34.22;18.98;;;;;;;;;;5013836;28;20105;-71
2022/01/24 08:14:44;;;;;;;32.67;19.10;;;;;;;;;;5013332;28;20556;-70
2022/01/24 08:17:11;;;;;;;31.33;18.65;;;;;;;;;;5013544;28;20046;-71
2022/01/24 08:19:37;;;;;;;30.67;17.00;;;;;;;;;;5013962;28;20125;-71
2022/01/24 08:22:05;;;;;;;32.92;19.17;;;;;;;;;;5012897;28;20049;-71
2022/01/24 08:24:36;;;;;;;31.10;19.23;;;;;;;;;;5012035;28;20058;-71
2022/01/24 08:27:03;;;;;;;31.73;18.92;;;;;;;;;;5012850;28;20046;-72
2022/01/24 08:29:29;;;;;;;33.67;18.40;;;;;;;;;;5012860;28;20096;-71
2022/01/24 08:31:56;;;;;;;30.80;17.40;;;;;;;;;;5012938;28;20058;-71
2022/01/24 08:34:22;;;;;;;31.55;18.00;;;;;;;;;;5012835;28;20104;-71
2022/01/24 08:36:49;;;;;;;31.35;17.45;;;;;;;;;;5011867;28;20100;-71
2022/01/24 08:39:15;;;;;;;33.33;17.60;;;;;;;;;;5012076;28;20054;-70
2022/01/24 08:42:01;;;;;;;31.70;16.95;;;;;;;;;;5012936;28;20046;-71
2022/01/24 08:45:44;;;;;;;29.73;17.08;;;;;;;;;;5002010;28;20441;-71
2022/01/24 08:47:21;;;;;;;31.52;18.58;;;;;;;;;;5012313;28;20120;-71
2022/01/24 08:50:08;;;;;;;;;;;;;;;;;;5013595;28;20077;-71
2022/01/24 08:52:34;;;;;;;31.98;18.23;;;;;;;;;;5013088;28;19925;-71
2022/01/24 08:55:11;;;;;;;30.73;17.77;;;;;;;;;;5012892;28;20144;-71
2022/01/24 08:57:40;;;;;;;28.92;18.40;;;;;;;;;;5012707;28;20041;-71
2022/01/24 09:00:07;;;;;;;30.10;17.60;;;;;;;;;;5011307;28;20053;-71
2022/01/24 09:02:35;;;;;;;31.77;18.15;;;;;;;;;;5012879;28;20444;-71
2022/01/24 09:05:02;;;;;;;29.23;17.20;;;;;;;;;;5008368;28;20073;-72
2022/01/24 09:07:30;;;;;;;30.13;16.40;;;;;;;;;;5012228;28;20046;-71
2022/01/24 09:09:57;;;;;;;34.70;17.90;;;;;;;;;;5009734;28;20053;-71
2022/01/24 09:12:27;;;;;;;30.75;17.25;;;;;;;;;;5010640;28;20054;-72
2022/01/24 09:14:54;;;;;;;29.30;17.15;;;;;;;;;;5011963;28;20054;-72
2022/01/24 09:17:20;;;;;;;28.10;15.80;;;;;;;;;;5011512;28;20050;-72
2022/01/24 09:19:47;;;;;;;32.63;16.83;;;;;;;;;;5011973;28;20069;-71
2022/01/24 09:22:34;;;;;;;27.77;15.85;;;;;;;;;;5011897;28;20119;-72
2022/01/24 09:25:01;;;;;;;28.98;16.15;;;;;;;;;;5012129;28;20096;-71
2022/01/24 09:27:29;;;;;;;28.10;17.08;;;;;;;;;;5011543;28;20054;-72
2022/01/24 09:29:55;;;;;;;26.75;15.80;;;;;;;;;;5011720;28;20092;-72
2022/01/24 09:32:21;;;;;;;26.45;15.95;;;;;;;;;;5010858;28;20049;-72
2022/01/24 09:34:48;;;;;;;24.23;15.65;;;;;;;;;;5011135;28;20054;-72
2022/01/24 09:37:14;;;;;;;28.05;16.02;;;;;;;;;;5011388;28;20045;-72
2022/01/24 09:39:41;;;;;;;30.60;18.10;;;;;;;;;;5011061;28;20100;-72
2022/01/24 09:42:23;;;;;;;30.27;16.17;;;;;;;;;;5010044;28;20046;-72
2022/01/24 09:44:50;;;;;;;27.25;16.25;;;;;;;;;;5011071;28;20042;-72
2022/01/24 09:47:17;;;;;;;28.73;16.48;;;;;;;;;;5011090;28;20054;-72
2022/01/24 09:49:45;;;;;;;27.60;16.00;;;;;;;;;;5011155;28;20050;-72
2022/01/24 09:52:12;;;;;;;25.92;15.15;;;;;;;;;;5011752;28;20440;-71
2022/01/24 09:54:38;;;;;;;26.92;16.25;;;;;;;;;;5011446;28;20502;-71
2022/01/24 09:57:05;;;;;;;29.08;15.85;;;;;;;;;;5011532;28;20124;-71
2022/01/24 09:59:32;;;;;;;30.23;17.45;;;;;;;;;;5009240;28;20046;-71
2022/01/24 10:01:59;;;;;;;31.17;16.98;;;;;;;;;;5011479;28;20054;-72
2022/01/24 10:04:26;;;;;;;;;;;;;;;;;;5012007;28;20129;-72
2022/01/24 10:06:58;;;;;;;30.02;16.23;;;;;;;;;;5011269;28;20377;-72
2022/01/24 10:09:36;;;;;;;28.60;16.23;;;;;;;;;;5010722;28;20482;-72
2022/01/24 10:12:04;;;;;;;;;;;;;;;;;;5010994;28;20053;-72
2022/01/24 10:17:23;;;;;;;28.15;15.45;;;;;;;;;;5011102;28;20497;-72
2022/01/24 10:19:50;;;;;;;31.13;16.50;;;;;;;;;;5011353;28;20054;-70
2022/01/24 10:22:20;;;;;;;26.40;14.90;;;;;;;;;;5010935;28;20046;-71
2022/01/24 10:24:53;;;;;;;30.80;16.48;;;;;;;;;;5011264;28;20096;-74
2022/01/24 10:27:28;;;;;;;28.92;16.00;;;;;;;;;;5011238;28;20086;-73
2022/01/24 10:30:08;;;;;;;30.52;16.50;;;;;;;;;;5009802;28;20097;-73
2022/01/24 10:32:36;;;;;;;27.02;16.35;;;;;;;;;;5011110;28;20167;-73
2022/01/24 10:35:21;;;;;;;28.33;16.13;;;;;;;;;;5011264;28;20119;-72
2022/01/24 10:37:50;;;;;;;25.42;15.20;;;;;;;;;;5010277;28;20050;-72
2022/01/24 10:40:30;;;;;;;26.77;15.57;;;;;;;;;;5011062;28;20058;-71
2022/01/24 10:43:18;;;;;;;28.13;16.65;;;;;;;;;;5009783;28;20088;-71
2022/01/24 10:45:44;;;;;;;;;;;;;;;;;;5010782;28;20383;-72
2022/01/24 10:48:11;;;;;;;26.98;15.10;;;;;;;;;;5007794;28;19956;-72
2022/01/24 10:50:38;;;;;;;27.45;16.25;;;;;;;;;;5010158;28;20092;-73
2022/01/24 10:53:14;;;;;;;29.25;16.73;;;;;;;;;;5010767;28;20046;-73
2022/01/24 10:55:47;;;;;;;28.95;17.30;;;;;;;;;;5003715;28;20065;-73
2022/01/24 10:58:16;;;;;;;28.05;16.85;;;;;;;;;;5010042;28;20556;-74
2022/01/24 11:00:43;;;;;;;28.92;17.00;;;;;;;;;;5010278;28;20140;-73
2022/01/24 11:03:17;;;;;;;28.70;17.00;;;;;;;;;;5010056;28;20470;-73
2022/01/24 11:05:44;;;;;;;28.92;17.25;;;;;;;;;;5011176;28;20077;-73
2022/01/24 11:08:12;;;;;;;31.58;16.67;;;;;;;;;;5010353;28;20042;-73
2022/01/24 11:10:40;;;;;;;28.02;16.42;;;;;;;;;;4997912;28;20107;-73
2022/01/24 11:13:07;;;;;;;27.60;15.98;;;;;;;;;;5014109;28;20112;-73
2022/01/24 11:15:34;;;;;;;28.10;16.95;;;;;;;;;;5014004;28;20104;-74
2022/01/24 11:18:02;;;;;;;27.92;15.48;;;;;;;;;;5014463;28;20096;-74
2022/01/24 11:20:31;;;;;;;28.70;16.33;;;;;;;;;;5012412;28;20050;-74
2022/01/24 11:23:05;;;;;;;28.67;17.33;;;;;;;;;;5014907;28;20050;-74
2022/01/24 11:25:36;;;;;;;27.92;16.08;;;;;;;;;;5013710;28;20453;-74
2022/01/24 11:28:03;;;;;;;28.98;17.33;;;;;;;;;;5014317;28;20493;-74
2022/01/24 11:30:34;;;;;;;28.42;16.88;;;;;;;;;;5010424;28;20042;-74
2022/01/24 11:33:15;;;;;;;29.42;17.25;;;;;;;;;;5014543;28;20052;-74
2022/01/24 11:35:55;;;;;;;28.42;17.02;;;;;;;;;;5010977;28;20494;-74
2022/01/24 11:38:42;;;;;;;29.45;17.75;;;;;;;;;;5013535;28;20100;-74
2022/01/24 11:41:20;;;;;;;27.42;17.20;;;;;;;;;;5013156;28;20062;-73
2022/01/24 11:43:56;;;;;;;28.63;17.08;;;;;;;;;;5008766;28;20050;-74
2022/01/24 11:46:47;;;;;;;26.85;16.05;;;;;;;;;;5011618;28;20045;-74
2022/01/24 11:49:19;;;;;;;27.77;15.25;;;;;;;;;;5013132;28;20073;-73
2022/01/24 11:51:47;;;;;;;28.38;17.13;;;;;;;;;;5014185;28;20050;-73
2022/01/24 11:54:42;;;;;;;25.63;15.98;;;;;;;;;;5012407;28;20093;-73
2022/01/24 11:57:15;;;;;;;29.50;17.13;;;;;;;;;;5013377;28;20046;-73
2022/01/24 11:59:42;;;;;;;27.05;15.95;;;;;;;;;;5011912;28;20038;-73
2022/01/24 12:02:10;;;;;;;27.67;16.40;;;;;;;;;;5012408;28;20084;-73
2022/01/24 12:04:54;;;;;;;28.58;16.70;;;;;;;;;;5004988;28;20050;-74
2022/01/24 12:07:28;;;;;;;29.05;17.30;;;;;;;;;;5011850;28;20081;-73
2022/01/24 12:09:56;;;;;;;28.33;16.95;;;;;;;;;;5010761;28;20062;-73
2022/01/24 12:12:39;;;;;;;29.48;17.38;;;;;;;;;;5012009;28;20054;-72
2022/01/24 12:15:09;;;;;;;30.17;17.52;;;;;;;;;;5012831;28;20104;-74
2022/01/24 12:17:47;;;;;;;31.25;17.88;;;;;;;;;;5010779;28;20050;-73
2022/01/24 12:20:44;;;;;;;27.65;16.70;;;;;;;;;;5012745;28;20053;-74
2022/01/24 12:23:14;;;;;;;28.73;17.20;;;;;;;;;;5011604;28;20433;-74
2022/01/24 12:25:54;;;;;;;29.30;17.33;;;;;;;;;;5012875;28;20444;-74
2022/01/24 12:28:24;;;;;;;25.40;15.43;;;;;;;;;;5012010;28;20045;-73
2022/01/24 12:31:03;;;;;;;26.88;15.93;;;;;;;;;;5012604;28;20096;-74
2022/01/24 12:33:29;;;;;;;29.30;15.82;;;;;;;;;;5011844;28;20077;-73
2022/01/24 12:35:56;;;;;;;29.52;17.10;;;;;;;;;;4995492;28;20050;-74
2022/01/24 12:38:22;;;;;;;27.63;15.43;;;;;;;;;;5010934;28;20092;-74
2022/01/24 12:41:09;;;;;;;29.52;18.20;;;;;;;;;;5011925;28;20054;-74
2022/01/24 12:43:52;;;;;;;29.00;17.05;;;;;;;;;;5006131;28;20468;-73
2022/01/24 12:46:25;;;;;;;24.98;15.50;;;;;;;;;;5010101;28;20405;-73
2022/01/24 12:48:53;;;;;;;31.20;17.10;;;;;;;;;;4993606;28;20132;-73
2022/01/24 12:51:23;;;;;;;23.98;15.20;;;;;;;;;;5011694;28;20042;-74
2022/01/24 12:53:50;;;;;;;29.77;17.77;;;;;;;;;;5012301;28;20050;-73
2022/01/24 12:56:18;;;;;;;;;;;;;;;;;;5012645;28;20065;-74
2022/01/24 12:58:46;;;;;;;31.27;17.33;;;;;;;;;;5012188;28;19921;-74
2022/01/24 13:01:41;;;;;;;27.17;17.30;;;;;;;;;;5012112;28;20045;-74
2022/01/24 13:04:11;;;;;;;28.20;16.67;;;;;;;;;;5010245;28;20112;-74
2022/01/24 13:06:39;;;;;;;25.75;15.80;;;;;;;;;;5012794;28;20100;-74
2022/01/24 13:09:25;;;;;;;27.38;15.30;;;;;;;;;;5012245;28;20053;-74
2022/01/24 13:11:53;;;;;;;26.70;16.50;;;;;;;;;;5011998;28;20498;-74
2022/01/24 13:14:32;;;;;;;27.45;16.38;;;;;;;;;;5012383;28;20129;-74
2022/01/24 13:22:50;;;;;;;24.77;15.63;;;;;;;;;;5012220;28;20049;-75
2022/01/24 13:25:17;;;;;;;28.70;17.02;;;;;;;;;;5011835;28;20041;-74
2022/01/24 13:27:48;;;;;;;29.63;17.10;;;;;;;;;;5011913;28;20413;-73
2022/01/24 13:30:35;;;;;;;27.27;17.27;;;;;;;;;;5012556;28;20053;-74
2022/01/24 13:33:02;;;;;;;34.30;18.03;;;;;;;;;;5011654;28;20556;-75
2022/01/24 13:35:31;;;;;;;34.65;18.45;;;;;;;;;;5011565;28;20042;-75
2022/01/24 13:37:59;;;;;;;31.98;18.88;;;;;;;;;;5011681;28;20054;-74
2022/01/24 13:40:30;;;;;;;38.10;20.88;;;;;;;;;;5011648;28;20041;-74
2022/01/24 13:42:56;;;;;;;34.15;19.77;;;;;;;;;;5011538;28;20050;-74
2022/01/24 13:45:23;;;;;;;32.47;19.67;;;;;;;;;;5009388;28;20448;-73
2022/01/24 13:47:59;;;;;;;31.83;19.95;;;;;;;;;;5011185;28;20046;-74
2022/01/24 13:50:26;;;;;;;32.78;18.75;;;;;;;;;;5011734;28;20084;-75
2022/01/24 13:52:53;;;;;;;30.45;17.15;;;;;;;;;;5011507;28;20046;-75
2022/01/24 13:55:20;;;;;;;32.92;18.33;;;;;;;;;;5011424;28;20085;-75
2022/01/24 13:57:47;;;;;;;31.67;18.30;;;;;;;;;;5011619;28;20104;-73
2022/01/24 14:00:15;;;;;;;30.90;18.55;;;;;;;;;;5011367;28;20045;-73
2022/01/24 14:02:42;;;;;;;;;;;;;;;;;;5011987;28;20042;-74
2022/01/24 14:05:09;;;;;;;32.15;16.85;;;;;;;;;;5011334;28;19969;-73
2022/01/24 14:07:43;;;;;;;26.63;16.98;;;;;;;;;;4998312;28;20045;-74
2022/01/24 14:10:11;;;;;;;31.30;18.58;;;;;;;;;;5011545;28;20556;-73
2022/01/24 14:12:51;;;;;;;33.42;18.55;;;;;;;;;;5011230;28;20064;-73
2022/01/24 14:18:22;;;;;;;31.08;18.05;;;;;;;;;;5011387;28;20129;-74
2022/01/24 14:20:51;;;;;;;31.13;18.38;;;;;;;;;;5011155;28;20049;-74
2022/01/24 14:23:22;;;;;;;29.45;18.13;;;;;;;;;;5011336;28;21466;-74
2022/01/24 14:25:49;;;;;;;30.45;17.92;;;;;;;;;;5011073;28;20088;-73
2022/01/24 14:28:15;;;;;;;29.88;17.27;;;;;;;;;;5011175;28;20046;-74
2022/01/24 14:30:43;;;;;;;32.00;18.45;;;;;;;;;;5010909;28;20557;-74
2022/01/24 14:33:12;;;;;;;31.88;19.55;;;;;;;;;;5011056;28;20493;-74
2022/01/24 14:35:48;;;;;;;34.40;19.73;;;;;;;;;;5011298;28;20565;-75
2022/01/24 14:38:25;;;;;;;34.03;19.05;;;;;;;;;;5011039;28;20050;-73
2022/01/24 14:40:54;;;;;;;33.35;19.77;;;;;;;;;;5010836;28;20100;-73
2022/01/24 14:46:08;;;;;;;34.63;19.63;;;;;;;;;;5011950;28;20052;-73
2022/01/24 14:48:42;;;;;;;33.33;19.13;;;;;;;;;;5014946;28;20042;-74
2022/01/24 14:51:08;;;;;;;37.92;19.80;;;;;;;;;;5014802;28;20050;-73
2022/01/24 14:53:35;;;;;;;33.97;18.63;;;;;;;;;;5014936;28;20096;-73
2022/01/24 14:56:01;;;;;;;36.58;19.45;;;;;;;;;;5014465;28;20096;-73
2022/01/24 14:58:28;;;;;;;34.95;20.63;;;;;;;;;;5013937;28;20054;-74
2022/01/24 15:00:54;;;;;;;34.72;19.05;;;;;;;;;;5014763;28;20564;-73
2022/01/24 15:03:21;;;;;;;36.55;20.05;;;;;;;;;;5014003;28;20129;-74
2022/01/24 15:05:47;;;;;;;36.15;20.35;;;;;;;;;;5014427;28;20057;-74
2022/01/24 15:08:14;;;;;;;34.63;20.20;;;;;;;;;;5013505;28;20065;-73
2022/01/24 15:10:40;;;;;;;33.58;19.70;;;;;;;;;;5012536;28;20127;-73
2022/01/24 15:13:09;;;;;;;35.95;19.75;;;;;;;;;;5014228;28;20054;-73
2022/01/24 15:15:41;;;;;;;34.72;18.98;;;;;;;;;;5014849;28;20100;-72
2022/01/24 15:26:04;;;;;;;36.85;19.73;;;;;;;;;;5014279;28;20123;-73
2022/01/24 15:28:31;;;;;;;32.05;18.92;;;;;;;;;;5013341;28;20103;-73
2022/01/24 15:30:57;;;;;;;35.60;19.75;;;;;;;;;;5012420;28;20084;-73
2022/01/24 15:33:24;;;;;;;36.83;20.05;;;;;;;;;;5012332;28;20054;-73
2022/01/24 15:35:52;;;;;;;36.30;20.30;;;;;;;;;;5014281;28;20069;-73
2022/01/24 15:38:18;;;;;;;;;;;;;;;;;;5013070;28;20544;-72
2022/01/24 15:40:44;;;;;;;35.85;19.27;;;;;;;;;;5013534;28;19929;-73
2022/01/24 15:48:05;;;;;;;34.13;19.98;;;;;;;;;;5014305;28;20069;-73
2022/01/24 15:50:33;;;;;;;35.35;19.92;;;;;;;;;;5002257;28;20042;-71
2022/01/24 15:52:59;;;;;;;34.38;19.75;;;;;;;;;;5013831;28;20134;-72
2022/01/24 15:55:29;;;;;;;38.25;19.98;;;;;;;;;;5010938;28;20050;-72
2022/01/24 15:57:57;;;;;;;35.42;19.50;;;;;;;;;;5013412;28;20050;-72
2022/01/24 16:00:28;;;;;;;36.38;19.40;;;;;;;;;;5012568;28;20053;-73
2022/01/24 16:02:58;;;;;;;37.95;19.55;;;;;;;;;;5012699;28;20057;-73
2022/01/24 16:05:26;;;;;;;33.97;19.25;;;;;;;;;;5001645;28;20499;-72
2022/01/24 16:07:53;;;;;;;32.90;17.73;;;;;;;;;;5013499;28;20037;-73
2022/01/24 16:10:20;;;;;;;;;;;;;;;;;;5012889;28;20548;-73
2022/01/24 16:12:47;;;;;;;34.33;17.85;;;;;;;;;;5013048;28;20436;-72
2022/01/24 16:15:15;;;;;;;29.63;17.67;;;;;;;;;;5012611;28;20391;-73
2022/01/24 16:17:41;;;;;;;36.13;19.42;;;;;;;;;;5012334;28;20042;-73
2022/01/24 16:20:22;;;;;;;36.47;19.13;;;;;;;;;;5012674;28;20056;-72
2022/01/24 16:25:34;;;;;;;34.97;18.50;;;;;;;;;;5012911;28;20061;-73
2022/01/24 16:28:08;;;;;;;36.70;18.58;;;;;;;;;;5012992;28;20398;-73
2022/01/24 16:30:36;;;;;;;35.35;19.52;;;;;;;;;;5013235;28;20057;-73
2022/01/24 16:33:03;;;;;;;35.20;19.08;;;;;;;;;;5012973;28;20112;-73
2022/01/24 16:35:30;;;;;;;36.90;20.03;;;;;;;;;;5012767;28;20066;-74
2022/01/24 16:37:57;;;;;;;36.20;20.30;;;;;;;;;;5013318;28;20053;-73
2022/01/24 16:40:33;;;;;;;34.50;18.60;;;;;;;;;;5012903;28;20042;-73
2022/01/24 16:48:33;;;;;;;36.38;19.10;;;;;;;;;;5010480;28;20140;-73